Time;durP1;ratioP1;P1;durP2;ratioP2;P2;SDS_P1;SDS_P2;PMS_P1;PMS_P2;Temp;Humidity;BMP_temperature;BMP_pressure;BME280_temperature;BME280_humidity;BME280_pressure;Samples;Min_cycle;Max_cycle;Signal;HPM_P1;HPM_P2
2023/07/21 00:00:23;;;;;;;11.50;8.60;;;;;;;18.54;81.03;99426.41;105942;1250;61128;-74
2023/07/21 00:02:52;;;;;;;10.10;8.40;;;;;;;18.54;80.98;99424.36;105947;1250;61228;-73
2023/07/21 00:05:24;;;;;;;8.50;7.20;;;;;;;18.55;80.78;99424.80;106042;1251;67388;-73
2023/07/21 00:07:51;;;;;;;9.50;8.40;;;;;;;18.54;80.77;99429.08;106001;1251;61349;-73
2023/07/21 00:10:19;;;;;;;11.00;8.20;;;;;;;18.52;80.72;99431.82;105914;1251;63917;-73
2023/07/21 00:12:49;;;;;;;9.40;8.40;;;;;;;18.51;80.71;99434.89;105862;1250;62147;-72
2023/07/21 00:15:17;;;;;;;8.80;7.70;;;;;;;18.52;80.81;99435.68;106071;1250;61283;-74
2023/07/21 00:17:46;;;;;;;11.80;9.20;;;;;;;18.50;80.62;99435.73;105936;1254;67378;-73
2023/07/21 00:20:19;;;;;;;11.30;10.10;;;;;;;18.48;80.70;99439.85;105961;1254;61226;-73
2023/07/21 00:22:46;;;;;;;12.60;10.10;;;;;;;18.46;80.92;99442.36;105718;1251;63948;-74
2023/07/21 00:25:14;;;;;;;12.70;10.30;;;;;;;18.46;81.02;99445.11;106016;1250;61885;-72
2023/07/21 00:27:42;;;;;;;13.20;11.20;;;;;;;18.47;81.15;99446.10;105958;1250;61224;-74
2023/07/21 00:30:13;;;;;;;15.10;11.20;;;;;;;18.50;81.11;99447.06;105993;1249;65846;-73
2023/07/21 00:32:41;;;;;;;13.40;11.90;;;;;;;18.49;80.93;99448.58;105724;1257;61327;-73
2023/07/21 00:35:09;;;;;;;15.40;12.20;;;;;;;18.48;81.01;99451.08;105968;1250;64082;-73
2023/07/21 00:37:37;;;;;;;12.60;11.30;;;;;;;18.48;81.00;99454.09;105645;1251;61425;-73
2023/07/21 00:40:20;;;;;;;12.30;11.00;;;;;;;18.49;80.97;99457.66;105976;1251;61206;-74
2023/07/21 00:42:48;;;;;;;14.30;12.50;;;;;;;18.47;80.76;99455.77;105819;1257;66350;-73
2023/07/21 00:45:15;;;;;;;13.50;11.70;;;;;;;18.41;80.60;99453.87;106028;1251;61257;-74
2023/07/21 00:47:44;;;;;;;14.40;12.00;;;;;;;18.37;80.61;99452.98;105834;1251;63925;-74
2023/07/21 00:50:15;;;;;;;13.00;11.70;;;;;;;18.34;80.52;99450.00;105716;1250;61312;-72
2023/07/21 00:52:42;;;;;;;13.20;11.80;;;;;;;18.29;80.46;99453.83;105815;1257;61139;-72
2023/07/21 00:55:09;;;;;;;13.30;12.00;;;;;;;18.26;80.26;99458.41;105933;1254;65920;-72
2023/07/21 00:57:36;;;;;;;14.20;12.70;;;;;;;18.26;80.26;99454.34;105998;1250;61252;-74
2023/07/21 01:00:10;;;;;;;13.40;11.80;;;;;;;18.25;80.06;99455.90;105875;1250;62817;-73
2023/07/21 01:02:38;;;;;;;12.40;11.30;;;;;;;18.24;79.80;99461.16;105895;1250;61222;-72
2023/07/21 01:05:06;;;;;;;12.90;11.80;;;;;;;18.23;79.70;99469.36;105806;1251;61400;-74
2023/07/21 01:07:34;;;;;;;13.20;11.70;;;;;;;18.20;79.59;99476.66;105916;1252;66794;-72
2023/07/21 01:10:01;;;;;;;14.50;12.70;;;;;;;18.17;79.49;99475.41;105933;1256;61944;-72
2023/07/21 01:12:29;;;;;;;13.40;12.20;;;;;;;18.14;79.24;99480.09;105771;1256;62638;-72
2023/07/21 01:14:57;;;;;;;13.60;12.40;;;;;;;18.10;79.35;99480.06;105897;1251;61336;-74
2023/07/21 01:17:24;;;;;;;13.90;12.60;;;;;;;18.04;79.31;99479.89;105754;1251;61407;-73
2023/07/21 01:19:51;;;;;;;13.40;12.20;;;;;;;17.99;79.57;99483.21;105731;1256;65718;-74
2023/07/21 01:22:28;;;;;;;14.00;12.30;;;;;;;17.95;79.79;99488.35;105634;1251;61278;-73
2023/07/21 01:25:11;;;;;;;11.10;10.00;;;;;;;17.93;79.98;99487.46;105959;1256;64396;-73
2023/07/21 01:27:39;;;;;;;12.00;10.90;;;;;;;17.91;79.92;99484.41;105745;1251;61289;-76
2023/07/21 01:30:10;;;;;;;12.90;11.60;;;;;;;17.91;79.98;99487.32;105874;1251;61227;-73
2023/07/21 01:32:39;;;;;;;11.80;10.60;;;;;;;17.91;79.97;99492.79;105832;1250;64817;-72
2023/07/21 01:35:08;;;;;;;13.30;12.10;;;;;;;17.87;79.90;99492.72;106124;1264;61313;-74
2023/07/21 01:37:37;;;;;;;11.40;10.20;;;;;;;17.83;79.94;99494.76;105724;1250;64039;-72
2023/07/21 01:40:13;;;;;;;12.20;11.10;;;;;;;17.81;80.04;99499.02;105639;1251;61398;-73
2023/07/21 01:42:42;;;;;;;13.80;12.40;;;;;;;17.79;80.04;99497.73;105808;1250;61283;-73
2023/07/21 01:45:09;;;;;;;14.70;13.20;;;;;;;17.74;79.89;99497.84;105899;1250;64894;-72
2023/07/21 01:47:36;;;;;;;12.40;11.20;;;;;;;17.73;79.97;99499.58;105826;1256;61163;-72
2023/07/21 01:50:04;;;;;;;14.80;13.30;;;;;;;17.71;79.84;99502.90;105762;1251;63992;-72
2023/07/21 01:52:32;;;;;;;16.00;14.40;;;;;;;17.70;79.75;99501.95;105754;1250;61330;-73
2023/07/21 01:55:02;;;;;;;16.90;15.10;;;;;;;17.70;79.63;99503.52;105823;1250;61301;-73
2023/07/21 01:57:32;;;;;;;17.50;15.70;;;;;;;17.70;79.63;99507.36;106068;1250;65937;-72
2023/07/21 02:00:02;;;;;;;20.80;17.50;;;;;;;17.68;79.53;99513.21;105725;1260;61332;-72
2023/07/21 02:02:42;;;;;;;18.90;16.90;;;;;;;17.64;79.30;99514.58;106094;1256;64601;-72
2023/07/21 02:05:22;;;;;;;19.30;17.20;;;;;;;17.59;79.29;99515.55;105933;1251;61172;-74
2023/07/21 02:07:51;;;;;;;19.70;17.20;;;;;;;17.55;79.31;99520.38;105875;1250;61206;-72
2023/07/21 02:10:18;;;;;;;20.70;17.40;;;;;;;17.51;79.29;99526.42;105994;1251;66394;-73
2023/07/21 02:12:49;;;;;;;17.60;15.60;;;;;;;17.48;79.25;99525.34;106218;1250;61327;-73
2023/07/21 02:15:17;;;;;;;18.00;16.20;;;;;;;17.44;79.20;99522.02;105950;1250;63761;-74
2023/07/21 02:17:45;;;;;;;17.50;15.70;;;;;;;17.40;79.33;99521.16;106019;1250;61389;-73
2023/07/21 02:20:14;;;;;;;19.70;16.00;;;;;;;17.37;79.33;99519.69;106087;1251;61323;-73
2023/07/21 02:22:43;;;;;;;17.20;15.50;;;;;;;17.35;79.40;99521.37;105868;1256;65895;-73
2023/07/21 02:25:13;;;;;;;17.00;15.40;;;;;;;17.32;79.47;99524.77;105904;1253;61114;-73
2023/07/21 02:27:42;;;;;;;17.80;16.00;;;;;;;17.32;79.56;99526.97;106034;1256;63970;-75
2023/07/21 02:30:10;;;;;;;16.90;15.20;;;;;;;17.31;79.58;99530.77;106019;1251;61228;-73
2023/07/21 02:32:37;;;;;;;16.80;15.00;;;;;;;17.30;79.46;99530.89;105971;1251;61206;-72
2023/07/21 02:35:05;;;;;;;19.00;17.00;;;;;;;17.29;79.35;99531.01;105756;1256;67254;-73
2023/07/21 02:37:35;;;;;;;17.80;15.90;;;;;;;17.28;79.43;99533.33;105880;1250;61217;-73
2023/07/21 02:40:06;;;;;;;15.70;14.30;;;;;;;17.27;79.51;99536.83;105915;1253;63960;-72
2023/07/21 02:42:35;;;;;;;19.10;15.60;;;;;;;17.26;79.64;99543.42;106014;1252;61157;-74
2023/07/21 02:45:03;;;;;;;16.60;15.00;;;;;;;17.25;79.63;99547.15;105872;1251;61136;-74
2023/07/21 02:47:30;;;;;;;17.00;15.40;;;;;;;17.24;79.64;99548.30;106003;1253;64696;-73
2023/07/21 02:49:57;;;;;;;16.10;14.40;;;;;;;17.23;79.60;99552.23;106022;1250;61240;-74
2023/07/21 02:52:27;;;;;;;16.80;15.10;;;;;;;17.20;79.73;99557.49;105815;1254;62621;-74
2023/07/21 02:54:55;;;;;;;15.70;14.20;;;;;;;17.19;79.81;99560.73;106214;1250;61317;-73
2023/07/21 02:57:22;;;;;;;17.40;14.90;;;;;;;17.18;79.62;99565.45;105645;1253;61677;-72
2023/07/21 02:59:49;;;;;;;15.10;13.60;;;;;;;17.19;79.82;99571.27;105790;1250;64532;-73
2023/07/21 03:02:18;;;;;;;14.40;13.00;;;;;;;17.20;79.87;99576.45;105873;1256;61397;-73
2023/07/21 03:04:46;;;;;;;13.90;12.50;;;;;;;17.23;79.95;99579.14;105909;1251;63973;-74
2023/07/21 03:07:14;;;;;;;13.70;11.80;;;;;;;17.24;79.89;99580.20;105989;1251;61500;-74
2023/07/21 03:09:44;;;;;;;13.60;12.10;;;;;;;17.24;80.01;99578.92;105861;1256;61218;-73
2023/07/21 03:12:18;;;;;;;12.40;11.10;;;;;;;17.26;80.00;99579.48;105790;1250;65880;-74
2023/07/21 03:15:06;;;;;;;12.40;11.10;;;;;;;17.28;80.19;99581.09;106175;1251;61272;-73
2023/07/21 03:17:46;;;;;;;11.80;10.40;;;;;;;17.32;80.29;99587.91;105824;1256;64048;-74
2023/07/21 03:20:15;;;;;;;10.80;9.50;;;;;;;17.35;80.41;99591.34;106165;1253;61333;-73
2023/07/21 03:22:43;;;;;;;12.90;10.20;;;;;;;17.36;80.47;99597.06;105736;1251;61264;-74
2023/07/21 03:25:12;;;;;;;12.90;10.10;;;;;;;17.38;80.64;99606.80;105775;1257;66035;-73
2023/07/21 03:27:40;;;;;;;10.00;8.60;;;;;;;17.39;80.51;99607.77;105836;1251;61352;-75
2023/07/21 03:30:10;;;;;;;10.00;9.00;;;;;;;17.40;80.47;99612.91;105785;1254;62647;-75
2023/07/21 03:32:45;;;;;;;9.70;8.80;;;;;;;17.43;80.49;99616.52;105707;1251;61208;-76
2023/07/21 03:35:14;;;;;;;9.90;8.90;;;;;;;17.48;80.38;99622.17;106057;1250;61228;-75
2023/07/21 03:37:42;;;;;;;12.10;9.10;;;;;;;17.51;80.38;99623.37;106128;1251;66038;-74
2023/07/21 03:40:10;;;;;;;12.10;9.20;;;;;;;17.53;80.25;99621.51;105879;1253;61245;-73
2023/07/21 03:42:37;;;;;;;11.40;8.70;;;;;;;17.56;80.12;99625.14;105976;1253;64687;-72
2023/07/21 03:45:05;;;;;;;9.40;8.40;;;;;;;17.57;80.07;99633.55;105759;1251;61205;-73
2023/07/21 03:47:35;;;;;;;11.00;8.30;;;;;;;17.59;80.04;99633.67;105818;1250;61260;-74
2023/07/21 03:50:05;;;;;;;9.70;8.70;;;;;;;17.62;79.89;99631.84;105613;1258;66100;-73
2023/07/21 03:52:32;;;;;;;10.60;8.80;;;;;;;17.64;79.87;99634.17;105679;1251;61234;-76
2023/07/21 03:55:00;;;;;;;11.60;8.60;;;;;;;17.65;79.71;99637.31;105797;1256;63300;-73
2023/07/21 03:57:29;;;;;;;10.20;8.20;;;;;;;17.67;79.60;99641.58;105852;1256;61327;-73
2023/07/21 03:59:58;;;;;;;9.40;8.50;;;;;;;17.68;79.54;99646.73;105741;1253;61264;-77
2023/07/21 04:02:25;;;;;;;10.30;8.30;;;;;;;17.70;79.33;99646.40;106381;1254;66002;-72
2023/07/21 04:04:55;;;;;;;8.50;7.60;;;;;;;17.71;79.23;99650.16;106020;1251;61330;-72
2023/07/21 04:07:22;;;;;;;11.70;8.20;;;;;;;17.71;79.19;99651.16;105706;1253;301763;-72
2023/07/21 04:09:49;;;;;;;9.90;8.00;;;;;;;17.73;78.90;99652.16;105927;1251;61262;-73
2023/07/21 04:12:16;;;;;;;9.00;7.50;;;;;;;17.77;78.91;99656.61;106122;1250;61232;-73
2023/07/21 04:14:45;;;;;;;8.00;7.20;;;;;;;17.83;78.82;99665.36;105838;1251;65826;-72
2023/07/21 04:17:12;;;;;;;8.80;7.40;;;;;;;17.86;78.72;99665.11;106048;1256;61977;-72
2023/07/21 04:19:39;;;;;;;8.20;7.40;;;;;;;17.89;78.72;99669.88;105916;1250;64023;-72
2023/07/21 04:22:07;;;;;;;8.30;7.00;;;;;;;17.93;78.52;99669.92;105635;1250;61323;-74
2023/07/21 04:24:36;;;;;;;8.40;7.20;;;;;;;17.96;78.16;99675.45;105693;1253;61344;-74
2023/07/21 04:27:04;;;;;;;9.60;6.80;;;;;;;17.97;78.01;99675.54;105708;1250;66682;-73
2023/07/21 04:29:34;;;;;;;8.30;7.30;;;;;;;17.99;77.78;99683.78;105795;1259;61209;-73
2023/07/21 04:32:05;;;;;;;9.70;6.70;;;;;;;18.04;77.84;99686.05;106078;1256;64020;-73
2023/07/21 04:34:33;;;;;;;7.30;6.60;;;;;;;18.10;77.77;99684.44;105827;1253;61268;-74
2023/07/21 04:37:00;;;;;;;8.50;6.80;;;;;;;18.15;77.61;99684.19;105800;1252;61238;-72
2023/07/21 04:39:37;;;;;;;7.50;6.80;;;;;;;18.20;77.43;99693.03;105814;1256;66005;-72
2023/07/21 04:42:06;;;;;;;9.60;7.10;;;;;;;18.22;77.15;99697.41;105880;1251;61333;-72
2023/07/21 04:44:32;;;;;;;8.60;6.60;;;;;;;18.23;77.03;99701.17;105587;1259;62719;-73
2023/07/21 04:46:59;;;;;;;7.20;6.30;;;;;;;18.23;76.95;99703.64;105939;1253;61343;-73
2023/07/21 04:49:33;;;;;;;8.00;6.30;;;;;;;18.23;76.56;99702.57;105899;1251;61428;-72
2023/07/21 04:52:00;;;;;;;9.20;6.80;;;;;;;18.23;76.35;99703.61;106073;1255;66078;-72
2023/07/21 04:54:27;;;;;;;7.30;6.60;;;;;;;18.24;76.07;99705.91;106020;1253;61339;-72
2023/07/21 04:56:53;;;;;;;10.60;7.20;;;;;;;18.23;75.88;99711.29;105766;1256;64056;-73
2023/07/21 04:59:20;;;;;;;8.90;7.10;;;;;;;18.25;75.93;99716.13;105944;1251;61329;-73
2023/07/21 05:01:47;;;;;;;8.60;7.00;;;;;;;18.27;75.98;99720.14;105976;1252;61301;-71
2023/07/21 05:04:16;;;;;;;6.90;6.10;;;;;;;18.31;75.87;99720.52;105944;1251;66099;-73
2023/07/21 05:06:44;;;;;;;7.50;6.80;;;;;;;18.37;75.84;99716.61;106035;1251;67046;-73
2023/07/21 05:09:13;;;;;;;10.00;6.10;;;;;;;18.44;75.91;99720.02;105726;1256;63806;-72
2023/07/21 05:11:41;;;;;;;11.10;6.80;;;;;;;18.51;75.78;99722.35;105560;1253;61335;-72
2023/07/21 05:14:08;;;;;;;9.70;6.40;;;;;;;18.58;75.79;99727.33;105973;1250;61321;-71
2023/07/21 05:16:48;;;;;;;8.70;6.00;;;;;;;18.67;75.70;99732.91;105800;1254;65866;-71
2023/07/21 05:19:31;;;;;;;8.40;6.20;;;;;;;18.76;75.41;99738.20;105790;1251;61328;-73
2023/07/21 05:22:38;;;;;;;8.60;6.00;;;;;;;18.87;75.21;99743.25;105525;1259;65464;-72
2023/07/21 05:25:05;;;;;;;9.10;6.40;;;;;;;18.95;74.83;99747.12;105331;1259;61401;-72
2023/07/21 05:27:34;;;;;;;7.00;6.00;;;;;;;18.99;74.36;99751.66;105695;1251;61337;-73
2023/07/21 05:30:06;;;;;;;6.20;5.70;;;;;;;19.01;73.82;99753.41;105984;1256;66003;-72
2023/07/21 05:32:39;;;;;;;7.30;5.20;;;;;;;19.01;73.26;99758.79;105547;1260;61296;-73
2023/07/21 05:35:09;;;;;;;6.50;5.90;;;;;;;19.02;73.15;99760.82;105924;1253;63990;-72
2023/07/21 05:37:39;;;;;;;6.30;5.70;;;;;;;19.06;73.04;99765.50;105913;1250;61218;-72
2023/07/21 05:40:08;;;;;;;6.30;5.60;;;;;;;19.12;73.12;99764.30;105832;1256;61200;-73
2023/07/21 05:42:35;;;;;;;6.60;5.50;;;;;;;19.21;73.03;99767.50;105819;1256;65856;-72
2023/07/21 05:45:06;;;;;;;5.90;5.20;;;;;;;19.28;72.92;99764.30;105880;1254;61263;-73
2023/07/21 05:47:34;;;;;;;8.60;5.60;;;;;;;19.36;72.51;99764.20;105839;1250;62793;-73
2023/07/21 05:50:01;;;;;;;6.20;5.30;;;;;;;19.41;71.89;99768.55;105917;1250;61327;-72
2023/07/21 05:52:30;;;;;;;6.30;4.80;;;;;;;19.44;70.84;99768.48;105968;1250;61336;-72
2023/07/21 05:54:57;;;;;;;4.90;4.50;;;;;;;19.47;70.19;99772.98;105916;1250;66666;-74
2023/07/21 05:57:27;;;;;;;5.10;4.60;;;;;;;19.50;69.53;99771.91;105955;1253;61262;-73
2023/07/21 05:59:56;;;;;;;5.20;4.70;;;;;;;19.51;68.80;99769.36;105614;1259;62829;-72
2023/07/21 06:02:23;;;;;;;4.80;4.30;;;;;;;19.48;68.47;99776.09;105914;1251;62075;-70
2023/07/21 06:04:57;;;;;;;4.80;4.40;;;;;;;19.47;68.15;99785.14;106162;1250;61106;-71
2023/07/21 06:07:45;;;;;;;6.30;4.00;;;;;;;19.47;68.17;99786.88;105829;1254;65924;-73
2023/07/21 06:10:33;;;;;;;6.40;4.20;;;;;;;19.54;68.28;99785.21;105923;1256;61245;-72
2023/07/21 06:13:20;;;;;;;6.20;4.30;;;;;;;19.60;68.34;99786.70;105834;1250;64069;-71
2023/07/21 06:16:00;;;;;;;4.60;3.90;;;;;;;19.65;67.75;99790.56;105607;1254;61461;-72
2023/07/21 06:18:39;;;;;;;5.30;4.20;;;;;;;19.65;67.40;99785.85;105820;1253;61269;-71
2023/07/21 06:21:06;;;;;;;4.70;4.00;;;;;;;19.68;67.51;99784.94;105861;1256;65835;-69
2023/07/21 06:23:33;;;;;;;4.00;3.70;;;;;;;19.71;67.33;99791.85;105893;1251;61340;-72
2023/07/21 06:25:59;;;;;;;4.20;3.80;;;;;;;19.79;66.70;99793.80;105975;1251;64030;-71
2023/07/21 06:28:26;;;;;;;3.90;3.60;;;;;;;19.86;65.04;99799.65;105918;1250;61257;-71
2023/07/21 06:30:53;;;;;;;4.90;3.70;;;;;;;19.90;64.22;99798.95;106150;1254;61928;-71
2023/07/21 06:33:40;;;;;;;41.50;8.30;;;;;;;19.90;63.56;99799.44;106005;1250;66569;-71
2023/07/21 06:36:25;;;;;;;4.90;4.10;;;;;;;19.89;63.74;99803.77;105997;1254;61132;-74
2023/07/21 06:39:09;;;;;;;5.30;4.10;;;;;;;19.84;64.05;99803.14;105876;1256;64017;-72
2023/07/21 06:42:08;;;;;;;6.90;4.20;;;;;;;19.77;64.49;99810.80;105711;1252;61907;-73
2023/07/21 06:44:44;;;;;;;9.50;4.20;;;;;;;19.74;64.89;99815.64;105793;1254;61253;-72
2023/07/21 06:47:30;;;;;;;4.10;3.40;;;;;;;19.71;64.88;99820.08;106159;1255;64854;-74
2023/07/21 06:50:16;;;;;;;3.80;3.50;;;;;;;19.73;64.74;99818.94;105792;1253;61446;-73
2023/07/21 06:52:49;;;;;;;5.40;3.50;;;;;;;19.82;64.49;99815.21;105730;1258;64027;-73
2023/07/21 06:55:21;;;;;;;3.60;3.30;;;;;;;19.93;64.28;99814.26;105974;1253;61275;-73
2023/07/21 06:57:48;;;;;;;4.10;3.20;;;;;;;20.09;64.41;99812.63;106067;1257;61230;-74
2023/07/21 07:00:16;;;;;;;7.30;3.50;;;;;;;20.26;64.11;99811.85;105744;1259;65811;-71
2023/07/21 07:02:48;;;;;;;6.60;3.40;;;;;;;20.45;63.89;99809.20;105848;1251;61340;-73
2023/07/21 07:05:16;;;;;;;5.50;2.90;;;;;;;20.64;63.28;99807.43;105740;1256;62904;-74
2023/07/21 07:07:43;;;;;;;5.70;3.30;;;;;;;20.82;62.60;99807.17;106034;1254;61193;-70
2023/07/21 07:10:13;;;;;;;4.40;3.70;;;;;;;20.98;62.03;99812.21;106037;1250;61251;-73
2023/07/21 07:12:40;;;;;;;5.10;3.60;;;;;;;21.04;61.20;99815.20;105599;1259;65924;-73
2023/07/21 07:15:10;;;;;;;3.80;3.50;;;;;;;20.93;60.56;99825.38;105851;1255;61148;-71
2023/07/21 07:17:38;;;;;;;7.40;3.70;;;;;;;20.75;60.61;99831.52;105904;1251;64345;-71
2023/07/21 07:20:10;;;;;;;3.80;3.50;;;;;;;20.60;61.03;99830.14;107152;1251;61313;-70
2023/07/21 07:22:38;;;;;;;6.40;3.40;;;;;;;20.54;61.51;99828.65;105882;1254;61153;-72
2023/07/21 07:25:06;;;;;;;8.60;4.00;;;;;;;20.56;61.92;99831.89;105544;1259;65986;-70
2023/07/21 07:27:34;;;;;;;5.00;3.10;;;;;;;20.65;61.77;99830.20;105733;1258;61832;-73
2023/07/21 07:30:01;;;;;;;5.00;4.00;;;;;;;20.73;60.95;99825.63;106242;1250;64093;-71
2023/07/21 07:32:29;;;;;;;4.40;3.20;;;;;;;20.80;60.95;99829.26;106193;1250;61307;-70
2023/07/21 07:34:59;;;;;;;4.00;3.00;;;;;;;20.95;61.18;99834.51;105996;1251;61828;-70
2023/07/21 07:37:28;;;;;;;8.20;3.50;;;;;;;21.11;61.17;99834.80;105670;1256;64590;-70
2023/07/21 07:39:55;;;;;;;60.30;7.90;;;;;;;21.30;60.79;99834.36;106228;1256;61221;-74
2023/07/21 07:42:23;;;;;;;141.40;14.70;;;;;;;21.46;60.06;99834.52;105896;1257;64444;-70
2023/07/21 07:44:55;;;;;;;22.30;4.60;;;;;;;21.63;59.62;99840.30;106046;1251;61248;-71
2023/07/21 07:47:22;;;;;;;67.10;9.30;;;;;;;21.72;58.85;99845.86;105948;1250;61378;-70
2023/07/21 07:49:49;;;;;;;13.10;3.50;;;;;;;21.68;58.05;99848.95;106035;1256;65989;-70
2023/07/21 07:52:18;;;;;;;6.50;3.30;;;;;;;21.61;57.55;99852.91;106067;1256;61348;-70
2023/07/21 07:54:45;;;;;;;4.70;3.20;;;;;;;21.59;57.74;99853.95;105716;1260;63889;-69
2023/07/21 07:57:12;;;;;;;18.70;4.40;;;;;;;21.58;57.67;99860.44;105770;1253;61307;-70
2023/07/21 07:59:39;;;;;;;3.30;3.00;;;;;;;21.61;57.42;99859.12;105823;1251;61337;-70
2023/07/21 08:02:06;;;;;;;18.20;5.00;;;;;;;21.69;57.70;99863.72;105964;1256;66057;-72
2023/07/21 08:04:34;;;;;;;54.10;7.30;;;;;;;21.77;57.57;99859.25;106080;1255;61358;-71
2023/07/21 08:07:01;;;;;;;5.70;3.00;;;;;;;21.86;57.24;99858.98;105629;1257;62753;-71
2023/07/21 08:09:28;;;;;;;2.60;2.40;;;;;;;21.94;56.61;99856.30;105738;1250;61469;-69
2023/07/21 08:11:56;;;;;;;3.10;2.60;;;;;;;22.03;56.46;99853.16;105849;1250;61337;-72
2023/07/21 08:14:26;;;;;;;9.70;3.00;;;;;;;22.17;56.53;99859.86;106006;1255;65941;-73
2023/07/21 08:16:55;;;;;;;212.80;25.70;;;;;;;22.32;56.07;99860.66;105984;1251;61256;-74
2023/07/21 08:19:22;;;;;;;310.30;27.30;;;;;;;22.46;55.63;99861.45;105915;1256;64017;-73
2023/07/21 08:21:49;;;;;;;94.40;12.20;;;;;;;22.52;55.04;99866.95;105894;1254;61241;-72
2023/07/21 08:24:16;;;;;;;28.90;5.80;;;;;;;22.46;54.10;99868.23;105924;1250;61247;-72
2023/07/21 08:26:43;;;;;;;5.80;2.90;;;;;;;22.35;54.27;99869.98;105911;1251;66055;-71
2023/07/21 08:29:10;;;;;;;46.70;4.00;;;;;;;22.32;54.26;99865.19;105944;1253;61243;-73
2023/07/21 08:31:37;;;;;;;3.20;2.40;;;;;;;22.35;54.00;99866.74;105951;1256;64016;-75
2023/07/21 08:34:05;;;;;;;4.90;2.50;;;;;;;22.39;54.03;99871.13;106011;1256;61245;-71
2023/07/21 08:36:33;;;;;;;2.90;2.00;;;;;;;22.48;53.55;99879.79;105921;1250;61234;-70
2023/07/21 08:39:20;;;;;;;4.60;2.30;;;;;;;22.50;52.31;99875.73;105837;1256;66084;-72
2023/07/21 08:41:49;;;;;;;8.40;3.10;;;;;;;22.46;52.24;99877.84;105725;1253;61401;-70
2023/07/21 08:44:16;;;;;;;8.00;2.40;;;;;;;22.47;52.82;99874.98;105842;1250;64023;-71
2023/07/21 08:46:43;;;;;;;226.80;27.00;;;;;;;22.59;53.26;99878.77;105964;1251;61860;-70
2023/07/21 08:49:10;;;;;;;47.90;7.40;;;;;;;22.71;52.29;99876.36;105964;1251;61221;-71
2023/07/21 08:51:38;;;;;;;88.00;9.60;;;;;;;22.85;52.64;99875.54;105779;1256;65948;-72
2023/07/21 08:54:05;;;;;;;4.50;2.20;;;;;;;23.06;52.45;99871.97;106182;1257;61250;-73
2023/07/21 08:56:33;;;;;;;13.40;2.00;;;;;;;23.25;51.97;99871.15;105983;1250;64102;-72
2023/07/21 08:59:00;;;;;;;3.30;2.10;;;;;;;23.42;51.51;99876.70;106112;1251;61352;-71
2023/07/21 09:01:27;;;;;;;2.60;1.80;;;;;;;23.54;51.42;99871.36;106216;1256;61221;-72
2023/07/21 09:03:54;;;;;;;2.00;1.70;;;;;;;23.70;51.65;99877.19;105980;1254;66011;-71
2023/07/21 09:06:21;;;;;;;2.40;1.80;;;;;;;23.88;51.00;99878.34;106097;1256;61433;-72
2023/07/21 09:08:47;;;;;;;1.60;1.40;;;;;;;24.01;50.18;99879.75;106244;1259;63884;-71
2023/07/21 09:11:15;;;;;;;1.70;1.60;;;;;;;24.10;50.18;99883.98;106213;1256;61224;-73
2023/07/21 09:13:51;;;;;;;2.10;1.50;;;;;;;24.23;50.22;99882.28;106140;1251;61298;-71
2023/07/21 09:16:19;;;;;;;1.80;1.50;;;;;;;24.37;49.78;99882.88;106226;1251;64889;-71
2023/07/21 09:18:46;;;;;;;2.50;1.70;;;;;;;24.50;49.59;99881.37;106180;1256;61208;-69
2023/07/21 09:21:23;;;;;;;2.80;1.60;;;;;;;24.63;48.94;99880.23;106272;1257;64055;-70
2023/07/21 09:23:50;;;;;;;3.10;1.70;;;;;;;24.76;49.07;99879.24;106022;1256;61390;-71
2023/07/21 09:26:21;;;;;;;2.20;1.70;;;;;;;24.88;48.62;99880.17;106403;1251;61228;-71
2023/07/21 09:28:49;;;;;;;2.70;1.70;;;;;;;24.99;48.64;99879.59;106180;1251;64820;-71
2023/07/21 09:31:16;;;;;;;4.60;1.90;;;;;;;25.05;48.18;99878.02;106225;1256;61244;-71
2023/07/21 09:33:45;;;;;;;4.30;1.70;;;;;;;25.07;48.80;99886.11;106309;1255;63927;-70
2023/07/21 09:36:15;;;;;;;2.30;1.80;;;;;;;25.16;48.50;99888.79;106227;1256;61258;-70
2023/07/21 09:38:43;;;;;;;1.60;1.50;;;;;;;25.25;48.05;99886.74;106108;1252;61321;-72
2023/07/21 09:41:11;;;;;;;2.30;1.80;;;;;;;25.35;48.27;99886.05;105909;1258;66080;-71
2023/07/21 09:43:38;;;;;;;4.20;1.60;;;;;;;25.44;47.43;99892.06;105869;1260;61305;-70
2023/07/21 09:46:07;;;;;;;6.40;2.40;;;;;;;25.44;46.79;99892.48;106001;1251;64110;-72
2023/07/21 09:48:47;;;;;;;17.30;2.40;;;;;;;25.40;47.40;99894.35;105986;1251;61224;-72
2023/07/21 09:51:14;;;;;;;2.50;1.80;;;;;;;25.40;47.29;99894.30;106033;1250;61145;-72
2023/07/21 09:53:45;;;;;;;3.70;2.40;;;;;;;25.39;46.79;99894.73;105752;1256;65978;-70
2023/07/21 09:56:13;;;;;;;3.30;2.40;;;;;;;25.29;47.07;99897.86;105943;1251;61638;-71
2023/07/21 09:58:52;;;;;;;2.00;1.60;;;;;;;25.33;48.15;99894.10;105938;1256;64089;-73
2023/07/21 10:01:20;;;;;;;5.70;1.90;;;;;;;25.49;46.74;99896.09;106009;1256;61317;-71
2023/07/21 10:03:48;;;;;;;3.80;2.20;;;;;;;25.58;46.99;99894.27;105777;1250;61321;-73
2023/07/21 10:06:15;;;;;;;2.10;1.70;;;;;;;25.80;47.43;99890.80;105810;1259;64624;-72
2023/07/21 10:08:42;;;;;;;4.10;2.10;;;;;;;26.00;47.08;99893.89;105764;1254;61338;-71
2023/07/21 10:11:09;;;;;;;19.80;2.50;;;;;;;26.10;46.53;99894.67;105799;1253;64160;-72
2023/07/21 10:13:44;;;;;;;4.20;2.10;;;;;;;26.18;46.68;99894.20;105754;1254;61300;-74
2023/07/21 10:16:13;;;;;;;82.30;10.60;;;;;;;26.34;46.90;99896.17;105975;1251;61375;-72
2023/07/21 10:19:06;;;;;;;340.60;40.30;;;;;;;26.52;46.73;99894.55;105813;1256;66005;-74
2023/07/21 10:21:52;;;;;;;239.20;29.40;;;;;;;26.64;46.01;99893.46;105941;1256;61256;-73
2023/07/21 10:24:32;;;;;;;9.80;3.90;;;;;;;26.69;45.76;99900.86;106014;1256;63018;-71
2023/07/21 10:27:03;;;;;;;66.30;9.50;;;;;;;26.80;44.52;99902.73;106046;1256;60194;-71
2023/07/21 10:29:30;;;;;;;47.00;6.70;;;;;;;26.90;43.39;99905.30;105807;1250;61243;-73
2023/07/21 10:31:58;;;;;;;34.20;5.70;;;;;;;26.95;43.12;99909.87;106045;1251;65859;-75
2023/07/21 10:34:26;;;;;;;42.00;6.10;;;;;;;27.08;43.76;99911.02;105998;1256;61240;-73
2023/07/21 10:36:53;;;;;;;46.90;7.80;;;;;;;27.29;42.74;99911.80;105943;1255;64049;-71
2023/07/21 10:39:23;;;;;;;113.40;16.60;;;;;;;27.45;42.10;99908.52;105698;1256;61233;-72
2023/07/21 10:41:52;;;;;;;35.70;6.20;;;;;;;27.54;41.19;99914.92;105902;1250;61253;-72
2023/07/21 10:44:19;;;;;;;38.40;4.50;;;;;;;27.61;41.46;99920.52;105735;1257;66055;-73
2023/07/21 10:46:48;;;;;;;219.70;24.80;;;;;;;27.73;40.64;99920.11;105904;1252;61333;-72
2023/07/21 10:49:16;;;;;;;16.40;3.00;;;;;;;27.82;39.45;99917.61;105876;1257;64095;-71
2023/07/21 10:51:44;;;;;;;2.30;1.80;;;;;;;27.89;39.16;99920.61;105866;1254;61318;-71
2023/07/21 10:54:12;;;;;;;5.00;1.80;;;;;;;27.96;39.19;99924.02;105726;1257;61148;-72
2023/07/21 10:56:46;;;;;;;14.30;2.80;;;;;;;28.07;39.70;99927.02;105900;1258;66006;-72
2023/07/21 10:59:16;;;;;;;4.70;2.30;;;;;;;28.17;38.64;99926.30;105883;1251;61283;-74
2023/07/21 11:01:47;;;;;;;16.70;3.20;;;;;;;28.05;38.65;99930.16;105894;1261;63933;-76
2023/07/21 11:04:24;;;;;;;4.90;2.30;;;;;;;27.91;39.53;99932.56;106095;1255;61241;-74
2023/07/21 11:06:53;;;;;;;3.70;2.50;;;;;;;27.97;40.49;99930.11;106113;1255;61209;-73
2023/07/21 11:09:21;;;;;;;5.60;2.40;;;;;;;28.17;40.25;99926.80;105901;1256;66063;-72
2023/07/21 11:11:49;;;;;;;8.40;2.80;;;;;;;28.33;38.72;99929.46;105777;1257;61373;-72
2023/07/21 11:14:25;;;;;;;3.70;2.30;;;;;;;28.48;39.65;99935.02;105844;1256;63886;-73
2023/07/21 11:16:56;;;;;;;6.50;2.40;;;;;;;28.71;39.11;99931.25;105744;1252;61241;-73
2023/07/21 11:19:27;;;;;;;5.30;2.20;;;;;;;28.91;39.04;99929.42;106097;1251;61325;-74
2023/07/21 11:21:54;;;;;;;4.40;2.10;;;;;;;29.10;37.78;99927.96;105841;1257;66048;-72
2023/07/21 11:24:28;;;;;;;4.10;1.90;;;;;;;29.17;37.34;99933.77;105890;1254;61324;-72
2023/07/21 11:26:56;;;;;;;2.90;2.30;;;;;;;29.07;37.73;99938.66;105832;1266;64021;-72
2023/07/21 11:29:26;;;;;;;82.60;8.30;;;;;;;28.97;38.41;99940.16;105782;1255;61311;-73
2023/07/21 11:31:53;;;;;;;3.20;2.20;;;;;;;28.94;38.64;99941.96;105814;1255;61266;-73